Aviation Digital Data Service (ADDS)

Output produced by TAFs form (0149 UTC 18 October 2017)
found at http://www.aviationweather.gov/adds/tafs/
 
METAR text: KATL 180052Z 09007KT 10SM FEW250 14/06 A3026 RMK AO2 SLP245 T01440061
Conditions at: KATL (ATLANTA , GA, US) observed 0052 UTC 18 October 2017
Temperature: 14.4°C (58°F)
Dewpoint: 6.1°C (43°F) [RH = 57%]
Pressure (altimeter): 30.26 inches Hg (1024.8 mb)
[Sea-level pressure: 1024.5 mb]
Winds: from the E (90 degrees) at 8 MPH (7 knots; 3.6 m/s)
Visibility: 10 or more miles (16+ km)
Ceiling: at least 12,000 feet AGL
Clouds: few clouds at 25000 feet AGL
Weather: no significant weather observed at this time

Forecast for: KATL (ATLANTA , GA, US)
Text: KATL 180131Z 1802/1906 08006KT P6SM SKC
Forecast period: 0200 to 1400 UTC 18 October 2017
Forecast type: FROM: standard forecast or significant change
Winds: from the E (80 degrees) at 7 MPH (6 knots; 3.1 m/s)
Visibility: 6 or more miles (10+ km)
Clouds: clear skies
Weather: no significant weather forecast for this period
Text: FM181400 08009KT P6SM SKC
Forecast period: 1400 UTC 18 October 2017 to 0600 UTC 19 October 2017
Forecast type: FROM: standard forecast or significant change
Winds: from the E (80 degrees) at 10 MPH (9 knots; 4.7 m/s)
Visibility: 6 or more miles (10+ km)
Clouds: clear skies
Weather: no significant weather forecast for this period